Time;durP1;ratioP1;P1;durP2;ratioP2;P2;SDS_P1;SDS_P2;PMS_P1;PMS_P2;Temp;Humidity;BMP_temperature;BMP_pressure;BME280_temperature;BME280_humidity;BME280_pressure;Samples;Min_cycle;Max_cycle;Signal;HPM_P1;HPM_P2
2022/05/14 00:00:19;;;;;;;;;;;;;;;;;;5031113;28;938;-70
2022/05/14 00:02:46;;;;;;;;;;;;;;;;;;5031080;28;1294;-70
2022/05/14 00:05:12;;;;;;;;;;;;;;;;;;5030884;28;1972;-70
2022/05/14 00:07:38;;;;;;;;;;;;;;;;;;5030471;28;1080;-70
2022/05/14 00:10:05;;;;;;;;;;;;;;;;;;5030543;28;1023;-70
2022/05/14 00:15:16;;;;;;;;;;;;;;;;;;5028956;28;949;-70
2022/05/14 00:17:43;;;;;;;;;;;;;;;;;;5030445;28;1112;-70
2022/05/14 00:20:09;;;;;;;;;;;;;;;;;;5030842;28;1076;-70
2022/05/14 00:22:36;;;;;;;;;;;;;;;;;;5030222;28;1290;-70
2022/05/14 00:25:02;;;;;;;;;;;;;;;;;;5030714;28;1969;-70
2022/05/14 00:27:28;;;;;;;;;;;;;;;;;;5030371;28;976;-70
2022/05/14 00:29:57;;;;;;;;;;;;;;;;;;5030352;28;787;-70
2022/05/14 00:32:24;;;;;;;;;;;;;;;;;;5030702;28;1387;-70
2022/05/14 00:34:50;;;;;;;;;;;;;;;;;;5031424;28;1139;-71
2022/05/14 00:37:16;;;;;;;;;;;;;;;;;;5032060;28;838;-70
2022/05/14 00:39:43;;;;;;;;;;;;;;;;;;5032494;28;1095;-70
2022/05/14 00:42:10;;;;;;;;;;;;;;;;;;5031979;28;1334;-70
2022/05/14 00:44:36;;;;;;;;;;;;;;;;;;5031125;28;826;-70
2022/05/14 00:47:05;;;;;;;;;;;;;;;;;;5030060;28;1979;-69
2022/05/14 00:49:32;;;;;;;;;;;;;;;;;;5028864;28;1132;-68
2022/05/14 00:51:58;;;;;;;;;;;;;;;;;;5028870;28;1312;-70
2022/05/14 00:54:26;;;;;;;;;;;;;;;;;;5028858;28;1190;-70
2022/05/14 00:56:53;;;;;;;;;;;;;;;;;;5029832;28;790;-69
2022/05/14 00:59:20;;;;;;;;;;;;;;;;;;5034225;28;1503;-70
2022/05/14 01:01:48;;;;;;;;;;;;;;;;;;5048766;28;1325;-70
2022/05/14 01:04:16;;;;;;;;;;;;;;;;;;5065276;28;1698;-68
2022/05/14 01:06:43;;;;;;;;;;;;;;;;;;5048374;28;1926;-69
2022/05/14 01:09:09;;;;;;;;;;;;;;;;;;5048900;28;1139;-69
2022/05/14 01:11:36;;;;;;;;;;;;;;;;;;5049951;28;1368;-69
2022/05/14 01:14:03;;;;;;;;;;;;;;;;;;5049849;28;816;-70
2022/05/14 01:16:32;;;;;;;;;;;;;;;;;;5048629;28;1346;-70
2022/05/14 01:19:00;;;;;;;;;;;;;;;;;;5048588;28;1488;-69
2022/05/14 01:21:34;;;;;;;;;;;;;;;;;;5048323;28;1435;-69
2022/05/14 01:26:47;;;;;;;;;;;;;;;;;;5048561;28;1983;-69
2022/05/14 01:29:19;;;;;;;;;;;;;;;;;;5052296;28;1283;-69
2022/05/14 01:31:46;;;;;;;;;;;;;;;;;;5052286;28;1450;-68
2022/05/14 01:34:16;;;;;;;;;;;;;;;;;;5052478;28;1466;-68
2022/05/14 01:36:43;;;;;;;;;;;;;;;;;;5051996;28;1258;-70
2022/05/14 01:39:09;;;;;;;;;;;;;;;;;;5051955;28;1262;-69
2022/05/14 01:41:36;;;;;;;;;;;;;;;;;;5052182;28;1317;-69
2022/05/14 01:44:04;;;;;;;;;;;;;;;;;;5052052;28;1226;-69
2022/05/14 01:46:30;;;;;;;;;;;;;;;;;;5052948;28;1918;-69
2022/05/14 01:48:57;;;;;;;;;;;;;;;;;;5053182;28;790;-69
2022/05/14 01:51:23;;;;;;;;;;;;;;;;;;5052114;28;1349;-69
2022/05/14 01:53:49;;;;;;;;;;;;;;;;;;5051856;28;1395;-70
2022/05/14 01:56:16;;;;;;;;;;;;;;;;;;5051345;28;1420;-69
2022/05/14 01:58:42;;;;;;;;;;;;;;;;;;5053087;28;865;-70
2022/05/14 02:01:16;;;;;;;;;;;;;;;;;;5051989;28;1573;-69
2022/05/14 02:03:45;;;;;;;;;;;;;;;;;;5051818;28;1316;-69
2022/05/14 02:06:11;;;;;;;;;;;;;;;;;;5051460;28;1950;-69
2022/05/14 02:08:37;;;;;;;;;;;;;;;;;;5052700;28;1107;-69
2022/05/14 02:11:04;;;;;;;;;;;;;;;;;;5051717;28;1331;-69
2022/05/14 02:13:31;;;;;;;;;;;;;;;;;;5051064;28;1385;-69
2022/05/14 02:15:58;;;;;;;;;;;;;;;;;;5051400;28;1700;-70
2022/05/14 02:18:25;;;;;;;;;;;;;;;;;;5052341;28;783;-70
2022/05/14 02:20:52;;;;;;;;;;;;;;;;;;5051619;28;1388;-70
2022/05/14 02:23:18;;;;;;;;;;;;;;;;;;5052351;28;1304;-69
2022/05/14 02:25:44;;;;;;;;;;;;;;;;;;5051404;28;1916;-70
2022/05/14 02:28:11;;;;;;;;;;;;;;;;;;5050903;28;1201;-69
2022/05/14 02:30:37;;;;;;;;;;;;;;;;;;5051165;28;1201;-69
2022/05/14 02:33:03;;;;;;;;;;;;;;;;;;5051149;28;1419;-69
2022/05/14 02:35:31;;;;;;;;;;;;;;;;;;5051101;28;2212;-69
2022/05/14 02:37:58;;;;;;;;;;;;;;;;;;5050320;28;1199;-69
2022/05/14 02:40:24;;;;;;;;;;;;;;;;;;5052328;28;810;-69
2022/05/14 02:42:52;;;;;;;;;;;;;;;;;;5051013;28;1384;-70
2022/05/14 02:45:18;;;;;;;;;;;;;;;;;;5051980;28;1013;-70
2022/05/14 02:47:45;;;;;;;;;;;;;;;;;;5050574;28;1922;-70
2022/05/14 02:50:11;;;;;;;;;;;;;;;;;;5052313;28;1091;-69
2022/05/14 02:52:40;;;;;;;;;;;;;;;;;;5050917;28;1407;-69
2022/05/14 02:55:06;;;;;;;;;;;;;;;;;;5050804;28;1362;-70
2022/05/14 02:57:32;;;;;;;;;;;;;;;;;;5050501;28;1048;-70
2022/05/14 02:59:59;;;;;;;;;;;;;;;;;;5047600;28;1475;-70
2022/05/14 03:02:25;;;;;;;;;;;;;;;;;;5050537;28;1481;-69
2022/05/14 03:04:52;;;;;;;;;;;;;;;;;;5052013;28;842;-69
2022/05/14 03:07:19;;;;;;;;;;;;;;;;;;5050068;28;1910;-70
2022/05/14 03:09:47;;;;;;;;;;;;;;;;;;5051893;28;865;-70
2022/05/14 03:12:14;;;;;;;;;;;;;;;;;;5051160;28;1400;-70
2022/05/14 03:14:40;;;;;;;;;;;;;;;;;;5050703;28;1604;-70
2022/05/14 03:17:08;;;;;;;;;;;;;;;;;;5050527;28;1554;-70
2022/05/14 03:19:34;;;;;;;;;;;;;;;;;;5051713;28;778;-70
2022/05/14 03:22:01;;;;;;;;;;;;;;;;;;5049940;28;1677;-69
2022/05/14 03:24:28;;;;;;;;;;;;;;;;;;5051163;28;770;-69
2022/05/14 03:26:55;;;;;;;;;;;;;;;;;;5051137;28;1918;-70
2022/05/14 03:29:22;;;;;;;;;;;;;;;;;;5049812;28;1358;-70
2022/05/14 03:31:48;;;;;;;;;;;;;;;;;;5050062;28;1308;-70
2022/05/14 03:34:14;;;;;;;;;;;;;;;;;;5050033;28;1364;-70
2022/05/14 03:36:41;;;;;;;;;;;;;;;;;;5049627;28;1445;-69
2022/05/14 03:39:09;;;;;;;;;;;;;;;;;;5050001;28;1339;-70
2022/05/14 03:41:35;;;;;;;;;;;;;;;;;;5050779;28;770;-69
2022/05/14 03:44:03;;;;;;;;;;;;;;;;;;5044926;28;1391;-69
2022/05/14 03:46:30;;;;;;;;;;;;;;;;;;5038537;28;1914;-69
2022/05/14 03:48:56;;;;;;;;;;;;;;;;;;5040019;28;1247;-70
2022/05/14 03:51:22;;;;;;;;;;;;;;;;;;5039786;28;1231;-70
2022/05/14 03:53:49;;;;;;;;;;;;;;;;;;5051205;28;1315;-69
2022/05/14 03:56:16;;;;;;;;;;;;;;;;;;5050563;28;811;-69
2022/05/14 03:58:42;;;;;;;;;;;;;;;;;;5050768;28;818;-70
2022/05/14 04:01:10;;;;;;;;;;;;;;;;;;5049754;28;1258;-69
2022/05/14 04:03:36;;;;;;;;;;;;;;;;;;5049574;28;1413;-70
2022/05/14 04:06:03;;;;;;;;;;;;;;;;;;5083829;28;1918;-68
2022/05/14 04:08:29;;;;;;;;;;;;;;;;;;5078924;28;2036;-68
2022/05/14 04:10:55;;;;;;;;;;;;;;;;;;5043275;28;1916;-70
2022/05/14 04:13:22;;;;;;;;;;;;;;;;;;5045734;28;1397;-69
2022/05/14 04:15:48;;;;;;;;;;;;;;;;;;5046013;28;1161;-69
2022/05/14 04:18:20;;;;;;;;;;;;;;;;;;5050750;28;1028;-70
2022/05/14 04:20:46;;;;;;;;;;;;;;;;;;5049465;28;1310;-69
2022/05/14 04:23:12;;;;;;;;;;;;;;;;;;5049355;28;1319;-70
2022/05/14 04:25:39;;;;;;;;;;;;;;;;;;5066426;28;1217;-70
2022/05/14 04:28:06;;;;;;;;;;;;;;;;;;5065523;28;1918;-70
2022/05/14 04:30:32;;;;;;;;;;;;;;;;;;5065907;28;886;-70
2022/05/14 04:32:59;;;;;;;;;;;;;;;;;;5049384;28;1356;-69
2022/05/14 04:35:26;;;;;;;;;;;;;;;;;;5049317;28;1388;-69
2022/05/14 04:37:53;;;;;;;;;;;;;;;;;;5049114;28;1194;-70
2022/05/14 04:40:19;;;;;;;;;;;;;;;;;;5065837;28;1241;-69
2022/05/14 04:42:45;;;;;;;;;;;;;;;;;;5065951;28;1344;-69
2022/05/14 04:45:11;;;;;;;;;;;;;;;;;;5066506;28;1324;-70
2022/05/14 04:47:40;;;;;;;;;;;;;;;;;;5048479;28;1986;-70
2022/05/14 04:50:07;;;;;;;;;;;;;;;;;;5040645;28;1531;-70
2022/05/14 04:52:36;;;;;;;;;;;;;;;;;;5041086;28;1368;-69
2022/05/14 04:55:03;;;;;;;;;;;;;;;;;;5044743;28;1334;-68
2022/05/14 04:57:30;;;;;;;;;;;;;;;;;;5055982;28;1162;-68
2022/05/14 04:59:57;;;;;;;;;;;;;;;;;;5063940;28;1466;-69
2022/05/14 05:05:08;;;;;;;;;;;;;;;;;;5032263;28;1390;-69
2022/05/14 05:07:34;;;;;;;;;;;;;;;;;;5034087;28;1970;-69
2022/05/14 05:10:02;;;;;;;;;;;;;;;;;;5033067;28;825;-70
2022/05/14 05:12:28;;;;;;;;;;;;;;;;;;5041790;28;1381;-70
2022/05/14 05:14:54;;;;;;;;;;;;;;;;;;5041970;28;1331;-70
2022/05/14 05:17:20;;;;;;;;;;;;;;;;;;5043205;28;1296;-69
2022/05/14 05:19:46;;;;;;;;;;;;;;;;;;5042952;28;1383;-69
2022/05/14 05:22:13;;;;;;;;;;;;;;;;;;5042850;28;1502;-69
2022/05/14 05:24:39;;;;;;;;;;;;;;;;;;5044155;28;1265;-70
2022/05/14 05:27:07;;;;;;;;;;;;;;;;;;5042299;28;1918;-70
2022/05/14 05:29:33;;;;;;;;;;;;;;;;;;5050395;28;1399;-70
2022/05/14 05:31:59;;;;;;;;;;;;;;;;;;5039479;28;1597;-70
2022/05/14 05:34:26;;;;;;;;;;;;;;;;;;5040429;28;1147;-69
2022/05/14 05:36:53;;;;;;;;;;;;;;;;;;5032253;28;822;-69
2022/05/14 05:39:19;;;;;;;;;;;;;;;;;;5033822;28;1401;-69
2022/05/14 05:41:45;;;;;;;;;;;;;;;;;;5044324;28;1566;-69
2022/05/14 05:44:13;;;;;;;;;;;;;;;;;;5042540;28;1306;-69
2022/05/14 05:46:39;;;;;;;;;;;;;;;;;;5056602;28;1989;-70
2022/05/14 05:49:05;;;;;;;;;;;;;;;;;;5053314;28;802;-69
2022/05/14 05:51:32;;;;;;;;;;;;;;;;;;5038175;28;1363;-67
2022/05/14 05:56:51;;;;;;;;;;;;;;;;;;5051245;28;973;-69
2022/05/14 05:59:19;;;;;;;;;;;;;;;;;;5049967;28;1287;-70
2022/05/14 06:01:46;;;;;;;;;;;;;;;;;;5050997;28;1306;-69
2022/05/14 06:04:12;;;;;;;;;;;;;;;;;;5051299;28;936;-68
2022/05/14 06:06:41;;;;;;;;;;;;;;;;;;5050854;28;1910;-69
2022/05/14 06:09:07;;;;;;;;;;;;;;;;;;5051280;28;1001;-69
2022/05/14 06:11:33;;;;;;;;;;;;;;;;;;5042694;28;1353;-69
2022/05/14 06:13:59;;;;;;;;;;;;;;;;;;5051524;28;1344;-69
2022/05/14 06:16:27;;;;;;;;;;;;;;;;;;5045971;28;1407;-69
2022/05/14 06:18:53;;;;;;;;;;;;;;;;;;5039818;28;1331;-69
2022/05/14 06:21:19;;;;;;;;;;;;;;;;;;5045246;28;1267;-69
2022/05/14 06:23:45;;;;;;;;;;;;;;;;;;5043406;28;1445;-68
2022/05/14 06:26:12;;;;;;;;;;;;;;;;;;5043753;28;1234;-69
2022/05/14 06:28:38;;;;;;;;;;;;;;;;;;5052650;28;1902;-69
2022/05/14 06:31:04;;;;;;;;;;;;;;;;;;5048384;28;1467;-69
2022/05/14 06:33:32;;;;;;;;;;;;;;;;;;5040855;28;1410;-69
2022/05/14 06:35:59;;;;;;;;;;;;;;;;;;5035315;28;1158;-70
2022/05/14 06:38:26;;;;;;;;;;;;;;;;;;5052107;28;782;-69
2022/05/14 06:40:53;;;;;;;;;;;;;;;;;;5041409;28;1401;-69
2022/05/14 06:43:19;;;;;;;;;;;;;;;;;;5036527;28;1751;-69
2022/05/14 06:45:46;;;;;;;;;;;;;;;;;;5036642;28;1415;-69
2022/05/14 06:48:12;;;;;;;;;;;;;;;;;;5039671;28;1916;-69
2022/05/14 06:50:41;;;;;;;;;;;;;;;;;;5047391;28;1174;-69
2022/05/14 06:53:07;;;;;;;;;;;;;;;;;;5051585;28;1393;-67
2022/05/14 06:55:36;;;;;;;;;;;;;;;;;;5048666;28;1542;-69
2022/05/14 06:58:02;;;;;;;;;;;;;;;;;;5051621;28;1142;-69
2022/05/14 07:00:28;;;;;;;;;;;;;;;;;;5051891;28;1130;-69
2022/05/14 07:06:37;;;;;;;;;;;;;;;;;;5051895;28;1310;-69
2022/05/14 07:08:26;;;;;;;;;;;;;;;;;;5050980;28;1926;-70
2022/05/14 07:10:52;;;;;;;;;;;;;;;;;;5051600;28;975;-69
2022/05/14 07:13:19;;;;;;;;;;;;;;;;;;5051558;28;1293;-70
2022/05/14 07:15:45;;;;;;;;;;;;;;;;;;5051687;28;783;-70
2022/05/14 07:18:11;;;;;;;;;;;;;;;;;;5050962;28;1390;-69
2022/05/14 07:20:37;;;;;;;;;;;;;;;;;;5051439;28;861;-70
2022/05/14 07:23:05;;;;;;;;;;;;;;;;;;5051404;28;1381;-71
2022/05/14 07:25:32;;;;;;;;;;;;;;;;;;5051615;28;704;-69
2022/05/14 07:27:58;;;;;;;;;;;;;;;;;;5050934;28;1918;-70
2022/05/14 07:30:24;;;;;;;;;;;;;;;;;;5051169;28;1075;-69
2022/05/14 07:32:51;;;;;;;;;;;;;;;;;;5051355;28;1403;-69
2022/05/14 07:35:17;;;;;;;;;;;;;;;;;;5051317;28;890;-68
2022/05/14 07:37:44;;;;;;;;;;;;;;;;;;5050932;28;941;-69
2022/05/14 07:40:14;;;;;;;;;;;;;;;;;;5051223;28;826;-70
2022/05/14 07:42:42;;;;;;;;;;;;;;;;;;5051087;28;1399;-69
2022/05/14 07:45:09;;;;;;;;;;;;;;;;;;5051211;28;817;-69
2022/05/14 07:47:35;;;;;;;;;;;;;;;;;;5050384;28;1965;-70
2022/05/14 07:50:02;;;;;;;;;;;;;;;;;;5050925;28;794;-69
2022/05/14 07:52:29;;;;;;;;;;;;;;;;;;5049784;28;1308;-68
2022/05/14 07:54:55;;;;;;;;;;;;;;;;;;5050895;28;1075;-69
2022/05/14 07:57:22;;;;;;;;;;;;;;;;;;5050571;28;960;-70
2022/05/14 07:59:48;;;;;;;;;;;;;;;;;;5051029;28;1146;-69
2022/05/14 08:02:22;;;;;;;;;;;;;;;;;;5050414;28;1309;-67
2022/05/14 08:04:48;;;;;;;;;;;;;;;;;;5050757;28;1076;-70
2022/05/14 08:07:14;;;;;;;;;;;;;;;;;;5049900;28;1990;-68
2022/05/14 08:09:41;;;;;;;;;;;;;;;;;;5050866;28;1145;-70
2022/05/14 08:12:07;;;;;;;;;;;;;;;;;;5050487;28;1388;-70
2022/05/14 08:14:36;;;;;;;;;;;;;;;;;;5049402;28;1404;-69
2022/05/14 08:17:02;;;;;;;;;;;;;;;;;;5050252;28;719;-69
2022/05/14 08:19:28;;;;;;;;;;;;;;;;;;5050414;28;984;-69
2022/05/14 08:24:38;;;;;;;;;;;;;;;;;;5050147;28;992;-67
2022/05/14 08:27:06;;;;;;;;;;;;;;;;;;5050282;28;948;-70
2022/05/14 08:29:33;;;;;;;;;;;;;;;;;;5050269;28;1979;-70
2022/05/14 08:32:01;;;;;;;;;;;;;;;;;;5050484;28;1401;-70
2022/05/14 08:34:27;;;;;;;;;;;;;;;;;;5050526;28;1056;-69
2022/05/14 08:36:53;;;;;;;;;;;;;;;;;;5054230;28;1118;-70
2022/05/14 08:39:20;;;;;;;;;;;;;;;;;;5056763;28;779;-70
2022/05/14 08:41:47;;;;;;;;;;;;;;;;;;5056863;28;1321;-69
2022/05/14 08:44:15;;;;;;;;;;;;;;;;;;5055508;28;884;-70
2022/05/14 08:46:41;;;;;;;;;;;;;;;;;;5056550;28;964;-69
2022/05/14 08:49:09;;;;;;;;;;;;;;;;;;5056729;28;1914;-69
2022/05/14 08:51:36;;;;;;;;;;;;;;;;;;5056766;28;1029;-70
2022/05/14 08:54:03;;;;;;;;;;;;;;;;;;5056738;28;1401;-69
2022/05/14 08:56:32;;;;;;;;;;;;;;;;;;5056487;28;1068;-70
2022/05/14 08:59:06;;;;;;;;;;;;;;;;;;5055797;28;1474;-69
2022/05/14 09:01:33;;;;;;;;;;;;;;;;;;5055083;28;1495;-68
2022/05/14 09:04:00;;;;;;;;;;;;;;;;;;5056925;28;1376;-70
2022/05/14 09:06:27;;;;;;;;;;;;;;;;;;5055105;28;934;-69
2022/05/14 09:08:53;;;;;;;;;;;;;;;;;;5056699;28;1978;-69
2022/05/14 09:11:20;;;;;;;;;;;;;;;;;;5056642;28;1080;-68
2022/05/14 09:13:48;;;;;;;;;;;;;;;;;;5056731;28;1329;-70
2022/05/14 09:16:20;;;;;;;;;;;;;;;;;;5056467;28;1269;-70
2022/05/14 09:18:48;;;;;;;;;;;;;;;;;;5056560;28;1088;-69
2022/05/14 09:21:17;;;;;;;;;;;;;;;;;;5056513;28;1428;-70
2022/05/14 09:23:45;;;;;;;;;;;;;;;;;;5056642;28;1367;-70
2022/05/14 09:26:13;;;;;;;;;;;;;;;;;;5056359;28;964;-69
2022/05/14 09:28:41;;;;;;;;;;;;;;;;;;5056425;28;1979;-69
2022/05/14 09:31:07;;;;;;;;;;;;;;;;;;5056756;28;949;-69
2022/05/14 09:33:38;;;;;;;;;;;;;;;;;;5056649;28;1323;-70
2022/05/14 09:36:05;;;;;;;;;;;;;;;;;;5056117;28;1068;-70
2022/05/14 09:38:31;;;;;;;;;;;;;;;;;;5056504;28;1135;-70
2022/05/14 09:41:10;;;;;;;;;;;;;;;;;;5056509;28;1080;-70
2022/05/14 09:43:37;;;;;;;;;;;;;;;;;;5056408;28;1434;-70
2022/05/14 09:46:05;;;;;;;;;;;;;;;;;;5056485;28;1071;-69
2022/05/14 09:48:32;;;;;;;;;;;;;;;;;;5052679;28;1969;-71
2022/05/14 09:50:59;;;;;;;;;;;;;;;;;;5053174;28;957;-70
2022/05/14 09:53:28;;;;;;;;;;;;;;;;;;5053003;28;1302;-70
2022/05/14 09:56:27;;;;;;;;;;;;;;;;;;5052859;28;1115;-71
2022/05/14 09:58:57;;;;;;;;;;;;;;;;;;5052875;28;1079;-69
2022/05/14 10:01:26;;;;;;;;;;;;;;;;;;5047176;28;1571;-70
2022/05/14 10:03:58;;;;;;;;;;;;;;;;;;5045462;28;1506;-70
2022/05/14 10:06:26;;;;;;;;;;;;;;;;;;5042737;28;1467;-70
2022/05/14 10:08:56;;;;;;;;;;;;;;;;;;5040948;28;1977;-69
2022/05/14 10:11:23;;;;;;;;;;;;;;;;;;5045494;28;1948;-69
2022/05/14 10:13:51;;;;;;;;;;;;;;;;;;5033271;28;1525;-70
2022/05/14 10:16:20;;;;;;;;;;;;;;;;;;5046150;28;1400;-69
2022/05/14 10:18:50;;;;;;;;;;;;;;;;;;5041803;28;1736;-68
2022/05/14 10:21:17;;;;;;;;;;;;;;;;;;5040954;28;1803;-70
2022/05/14 10:26:47;;;;;;;;;;;;;;;;;;5032232;28;802;-70
2022/05/14 10:29:24;;;;;;;;;;;;;;;;;;5037710;28;1969;-69
2022/05/14 10:31:54;;;;;;;;;;;;;;;;;;5039254;28;1859;-71
2022/05/14 10:34:24;;;;;;;;;;;;;;;;;;5035594;28;1823;-70
2022/05/14 10:36:55;;;;;;;;;;;;;;;;;;5060864;28;1441;-69
2022/05/14 10:39:23;;;;;;;;;;;;;;;;;;5032561;28;794;-70
2022/05/14 10:41:50;;;;;;;;;;;;;;;;;;5032365;28;1412;-69
2022/05/14 10:44:18;;;;;;;;;;;;;;;;;;5045069;28;1923;-69
2022/05/14 10:46:45;;;;;;;;;;;;;;;;;;5039931;28;1230;-70
2022/05/14 10:49:15;;;;;;;;;;;;;;;;;;5032194;28;1918;-71
2022/05/14 10:51:42;;;;;;;;;;;;;;;;;;5031027;28;1328;-69
2022/05/14 10:54:12;;;;;;;;;;;;;;;;;;5039626;28;1847;-68
2022/05/14 10:56:38;;;;;;;;;;;;;;;;;;5043418;28;1221;-70
2022/05/14 10:59:13;;;;;;;;;;;;;;;;;;5030527;28;1494;-70
2022/05/14 11:01:43;;;;;;;;;;;;;;;;;;5034489;28;1855;-68
2022/05/14 11:04:14;;;;;;;;;;;;;;;;;;5047693;28;1273;-70
2022/05/14 11:06:48;;;;;;;;;;;;;;;;;;5051427;28;604;-70
2022/05/14 11:09:17;;;;;;;;;;;;;;;;;;5051569;28;1922;-69
2022/05/14 11:11:46;;;;;;;;;;;;;;;;;;5043442;28;1830;-68
2022/05/14 11:14:13;;;;;;;;;;;;;;;;;;5031200;28;1280;-70
2022/05/14 11:16:40;;;;;;;;;;;;;;;;;;5032221;28;1831;-69
2022/05/14 11:19:07;;;;;;;;;;;;;;;;;;5034733;28;1158;-68
2022/05/14 11:21:35;;;;;;;;;;;;;;;;;;5051239;28;846;-67
2022/05/14 11:24:02;;;;;;;;;;;;;;;;;;5051362;28;1418;-70
2022/05/14 11:26:28;;;;;;;;;;;;;;;;;;5050070;28;1759;-69
2022/05/14 11:28:56;;;;;;;;;;;;;;;;;;5042009;28;1973;-70
2022/05/14 11:31:24;;;;;;;;;;;;;;;;;;5032281;28;1795;-71
2022/05/14 11:33:50;;;;;;;;;;;;;;;;;;5034412;28;1398;-69
2022/05/14 11:36:22;;;;;;;;;;;;;;;;;;5050863;28;1332;-68
2022/05/14 11:38:53;;;;;;;;;;;;;;;;;;5033786;28;1554;-70
2022/05/14 11:41:27;;;;;;;;;;;;;;;;;;5030840;28;1071;-71
2022/05/14 11:43:53;;;;;;;;;;;;;;;;;;5031201;28;1429;-70
2022/05/14 11:46:22;;;;;;;;;;;;;;;;;;5033520;28;1768;-70
2022/05/14 11:48:49;;;;;;;;;;;;;;;;;;5039080;28;1918;-69
2022/05/14 11:51:16;;;;;;;;;;;;;;;;;;5031067;28;991;-69
2022/05/14 11:53:44;;;;;;;;;;;;;;;;;;5030752;28;1305;-69
2022/05/14 11:56:13;;;;;;;;;;;;;;;;;;5033154;28;1728;-70
2022/05/14 11:58:44;;;;;;;;;;;;;;;;;;5043975;28;1684;-70
2022/05/14 12:01:18;;;;;;;;;;;;;;;;;;5035021;28;1242;-69
2022/05/14 12:03:45;;;;;;;;;;;;;;;;;;5034119;28;1459;-70
2022/05/14 12:06:15;;;;;;;;;;;;;;;;;;5046972;28;1196;-70
2022/05/14 12:08:48;;;;;;;;;;;;;;;;;;5039263;28;1902;-69
2022/05/14 12:11:23;;;;;;;;;;;;;;;;;;5036595;28;1870;-69
2022/05/14 12:13:50;;;;;;;;;;;;;;;;;;5038875;28;1409;-69
2022/05/14 12:16:16;;;;;;;;;;;;;;;;;;5030392;28;1080;-70
2022/05/14 12:18:42;;;;;;;;;;;;;;;;;;5030664;28;1119;-69
2022/05/14 12:21:09;;;;;;;;;;;;;;;;;;5030704;28;1064;-69
2022/05/14 12:23:39;;;;;;;;;;;;;;;;;;5035881;28;1468;-71
2022/05/14 12:26:07;;;;;;;;;;;;;;;;;;5039583;28;1149;-70
2022/05/14 12:28:35;;;;;;;;;;;;;;;;;;5030607;28;1973;-70
2022/05/14 12:33:53;;;;;;;;;;;;;;;;;;5030143;28;1429;-69
2022/05/14 12:36:19;;;;;;;;;;;;;;;;;;5029970;28;1075;-69
2022/05/14 12:38:46;;;;;;;;;;;;;;;;;;5030679;28;1016;-69
2022/05/14 12:41:17;;;;;;;;;;;;;;;;;;5030574;28;1024;-69
2022/05/14 12:43:45;;;;;;;;;;;;;;;;;;5030625;28;1436;-70
2022/05/14 12:46:11;;;;;;;;;;;;;;;;;;5030267;28;1119;-69
2022/05/14 12:48:42;;;;;;;;;;;;;;;;;;5030543;28;1971;-69
2022/05/14 12:51:08;;;;;;;;;;;;;;;;;;5033316;28;1395;-69
2022/05/14 12:53:35;;;;;;;;;;;;;;;;;;5047808;28;1614;-69
2022/05/14 12:56:01;;;;;;;;;;;;;;;;;;5039805;28;1154;-69
2022/05/14 12:58:28;;;;;;;;;;;;;;;;;;5034332;28;1388;-70
2022/05/14 13:00:55;;;;;;;;;;;;;;;;;;5046436;28;1357;-69
2022/05/14 13:03:23;;;;;;;;;;;;;;;;;;5044547;28;1385;-70
2022/05/14 13:05:50;;;;;;;;;;;;;;;;;;5038619;28;1225;-69
2022/05/14 13:08:17;;;;;;;;;;;;;;;;;;5049837;28;814;-69
2022/05/14 13:10:45;;;;;;;;;;;;;;;;;;5041349;28;1952;-70
2022/05/14 13:13:11;;;;;;;;;;;;;;;;;;5036604;28;1323;-69
2022/05/14 13:15:38;;;;;;;;;;;;;;;;;;5036569;28;1493;-69
2022/05/14 13:18:13;;;;;;;;;;;;;;;;;;5038018;28;1155;-70
2022/05/14 13:20:39;;;;;;;;;;;;;;;;;;5029018;28;871;-70
2022/05/14 13:23:10;;;;;;;;;;;;;;;;;;5032205;28;1428;-69
2022/05/14 13:25:36;;;;;;;;;;;;;;;;;;5033988;28;1120;-71
2022/05/14 13:28:10;;;;;;;;;;;;;;;;;;5033516;28;1076;-70
2022/05/14 13:30:36;;;;;;;;;;;;;;;;;;5033380;28;1926;-68
2022/05/14 13:33:03;;;;;;;;;;;;;;;;;;5033490;28;1310;-69
2022/05/14 13:38:14;;;;;;;;;;;;;;;;;;5033580;28;993;-70
2022/05/14 13:40:43;;;;;;;;;;;;;;;;;;5033817;28;853;-69
2022/05/14 13:43:10;;;;;;;;;;;;;;;;;;5033364;28;1314;-70
2022/05/14 13:45:36;;;;;;;;;;;;;;;;;;5033495;28;965;-69
2022/05/14 13:48:04;;;;;;;;;;;;;;;;;;5032799;28;894;-69
2022/05/14 13:50:32;;;;;;;;;;;;;;;;;;5032360;28;1981;-69
2022/05/14 13:52:59;;;;;;;;;;;;;;;;;;5033281;28;1392;-69
2022/05/14 13:55:30;;;;;;;;;;;;;;;;;;5031729;28;1476;-70
2022/05/14 13:57:58;;;;;;;;;;;;;;;;;;5032777;28;1404;-70
2022/05/14 14:00:25;;;;;;;;;;;;;;;;;;5051056;28;1352;-70
2022/05/14 14:02:58;;;;;;;;;;;;;;;;;;5044409;28;1329;-68
2022/05/14 14:05:24;;;;;;;;;;;;;;;;;;5031728;28;1005;-70
2022/05/14 14:07:52;;;;;;;;;;;;;;;;;;5032852;28;1104;-69
2022/05/14 14:10:19;;;;;;;;;;;;;;;;;;5032993;28;1989;-69
2022/05/14 14:12:45;;;;;;;;;;;;;;;;;;5033204;28;1380;-69
2022/05/14 14:15:15;;;;;;;;;;;;;;;;;;5032792;28;1144;-69
2022/05/14 14:17:41;;;;;;;;;;;;;;;;;;5031492;28;1012;-69
2022/05/14 14:20:08;;;;;;;;;;;;;;;;;;5032939;28;859;-69
2022/05/14 14:22:34;;;;;;;;;;;;;;;;;;5040084;28;1589;-69
2022/05/14 14:25:03;;;;;;;;;;;;;;;;;;5041016;28;1331;-67
2022/05/14 14:27:29;;;;;;;;;;;;;;;;;;5038223;28;1566;-70
2022/05/14 14:29:57;;;;;;;;;;;;;;;;;;5049931;28;1910;-69
2022/05/14 14:32:24;;;;;;;;;;;;;;;;;;5051645;28;1363;-70
2022/05/14 14:34:50;;;;;;;;;;;;;;;;;;5049734;28;1298;-69
2022/05/14 14:37:17;;;;;;;;;;;;;;;;;;5036190;28;1146;-70
2022/05/14 14:39:44;;;;;;;;;;;;;;;;;;5052750;28;976;-70
2022/05/14 14:42:12;;;;;;;;;;;;;;;;;;5041310;28;1439;-69
2022/05/14 14:44:39;;;;;;;;;;;;;;;;;;5042762;28;1467;-70
2022/05/14 14:47:05;;;;;;;;;;;;;;;;;;5038854;28;1210;-69
2022/05/14 14:49:32;;;;;;;;;;;;;;;;;;5032478;28;1984;-69
2022/05/14 14:51:58;;;;;;;;;;;;;;;;;;5045137;28;1594;-70
2022/05/14 14:54:25;;;;;;;;;;;;;;;;;;5037661;28;1378;-69
2022/05/14 14:56:51;;;;;;;;;;;;;;;;;;5040019;28;1272;-70
2022/05/14 14:59:18;;;;;;;;;;;;;;;;;;5032070;28;1103;-69
2022/05/14 15:01:46;;;;;;;;;;;;;;;;;;5044518;28;2067;-68
2022/05/14 15:04:14;;;;;;;;;;;;;;;;;;5041431;28;1401;-70
2022/05/14 15:06:40;;;;;;;;;;;;;;;;;;5040347;28;1298;-69
2022/05/14 15:09:06;;;;;;;;;;;;;;;;;;5031278;28;1271;-69
2022/05/14 15:11:32;;;;;;;;;;;;;;;;;;5035755;28;1914;-69
2022/05/14 15:14:01;;;;;;;;;;;;;;;;;;5048581;28;1386;-70
2022/05/14 15:16:28;;;;;;;;;;;;;;;;;;5051483;28;1123;-68
2022/05/14 15:18:55;;;;;;;;;;;;;;;;;;5051389;28;795;-69
2022/05/14 15:21:21;;;;;;;;;;;;;;;;;;5050216;28;1336;-69
2022/05/14 15:23:48;;;;;;;;;;;;;;;;;;5037183;28;1534;-69
2022/05/14 15:26:14;;;;;;;;;;;;;;;;;;5036418;28;1461;-70
2022/05/14 15:28:41;;;;;;;;;;;;;;;;;;5031692;28;1019;-70
2022/05/14 15:31:08;;;;;;;;;;;;;;;;;;5034689;28;1966;-70
2022/05/14 15:33:37;;;;;;;;;;;;;;;;;;5043192;28;1311;-70
2022/05/14 15:36:03;;;;;;;;;;;;;;;;;;5041608;28;1495;-69
2022/05/14 15:38:29;;;;;;;;;;;;;;;;;;5038068;28;1357;-70
2022/05/14 15:40:55;;;;;;;;;;;;;;;;;;5039260;28;1182;-69
2022/05/14 15:43:24;;;;;;;;;;;;;;;;;;5030954;28;1415;-70
2022/05/14 15:45:51;;;;;;;;;;;;;;;;;;5036054;28;1520;-70
2022/05/14 15:48:17;;;;;;;;;;;;;;;;;;5041202;28;1467;-69
2022/05/14 15:50:45;;;;;;;;;;;;;;;;;;5038397;28;1967;-69
2022/05/14 15:53:11;;;;;;;;;;;;;;;;;;5029209;28;1333;-70
2022/05/14 15:55:40;;;;;;;;;;;;;;;;;;5029284;28;897;-70
2022/05/14 15:58:06;;;;;;;;;;;;;;;;;;5027803;28;723;-70
2022/05/14 16:00:32;;;;;;;;;;;;;;;;;;5029386;28;1553;-70
2022/05/14 16:02:59;;;;;;;;;;;;;;;;;;5028119;28;1355;-71
2022/05/14 16:05:25;;;;;;;;;;;;;;;;;;5029184;28;1021;-70
2022/05/14 16:07:53;;;;;;;;;;;;;;;;;;5030771;28;1044;-71
2022/05/14 16:15:56;;;;;;;;;;;;;;;;;;5041970;28;1209;-70
2022/05/14 16:18:23;;;;;;;;;;;;;;;;;;5029270;28;1177;-68
2022/05/14 16:20:49;;;;;;;;;;;;;;;;;;5030643;28;1115;-68
2022/05/14 16:23:17;;;;;;;;;;;;;;;;;;5030669;28;1405;-70
2022/05/14 16:25:43;;;;;;;;;;;;;;;;;;5029671;28;1001;-69
2022/05/14 16:28:10;;;;;;;;;;;;;;;;;;5030296;28;1067;-67
2022/05/14 16:30:36;;;;;;;;;;;;;;;;;;5029222;28;1914;-70
2022/05/14 16:33:02;;;;;;;;;;;;;;;;;;5031417;28;1429;-69
2022/05/14 16:35:29;;;;;;;;;;;;;;;;;;5030207;28;1202;-69
2022/05/14 16:37:56;;;;;;;;;;;;;;;;;;5031443;28;1021;-70
2022/05/14 16:40:23;;;;;;;;;;;;;;;;;;5032007;28;949;-70
2022/05/14 16:42:51;;;;;;;;;;;;;;;;;;5028779;28;1468;-70
2022/05/14 16:45:17;;;;;;;;;;;;;;;;;;5039922;28;1842;-69
2022/05/14 16:47:44;;;;;;;;;;;;;;;;;;5045972;28;1123;-70
2022/05/14 16:50:11;;;;;;;;;;;;;;;;;;5046960;28;1977;-70
2022/05/14 16:52:39;;;;;;;;;;;;;;;;;;5038923;28;1348;-68
2022/05/14 16:55:07;;;;;;;;;;;;;;;;;;5044381;28;1442;-69
2022/05/14 16:57:34;;;;;;;;;;;;;;;;;;5032823;28;1564;-70
2022/05/14 17:00:01;;;;;;;;;;;;;;;;;;5045197;28;1610;-71
2022/05/14 17:02:27;;;;;;;;;;;;;;;;;;5053987;28;1393;-69
2022/05/14 17:04:53;;;;;;;;;;;;;;;;;;5054159;28;1088;-71
2022/05/14 17:07:19;;;;;;;;;;;;;;;;;;5043798;28;1463;-70
2022/05/14 17:09:45;;;;;;;;;;;;;;;;;;5041188;28;1400;-70
2022/05/14 17:12:17;;;;;;;;;;;;;;;;;;5045039;28;1975;-71
2022/05/14 17:14:45;;;;;;;;;;;;;;;;;;5037778;28;1270;-69
2022/05/14 17:17:11;;;;;;;;;;;;;;;;;;5044709;28;1337;-69
2022/05/14 17:19:37;;;;;;;;;;;;;;;;;;5046988;28;1300;-69
2022/05/14 17:22:03;;;;;;;;;;;;;;;;;;5047313;28;1315;-69
2022/05/14 17:24:30;;;;;;;;;;;;;;;;;;5042156;28;1205;-69
2022/05/14 17:26:56;;;;;;;;;;;;;;;;;;5033693;28;852;-69
2022/05/14 17:29:22;;;;;;;;;;;;;;;;;;5036614;28;1400;-69
2022/05/14 17:31:50;;;;;;;;;;;;;;;;;;5050242;28;1922;-68
2022/05/14 17:34:16;;;;;;;;;;;;;;;;;;5053583;28;1071;-69
2022/05/14 17:39:42;;;;;;;;;;;;;;;;;;5053215;28;782;-69